createdAt,value
2022-09-24T00:00:11.771Z,11.6
2022-09-24T00:03:12.219Z,11.6
2022-09-24T00:06:11.654Z,11.6
2022-09-24T00:09:11.740Z,11.6
2022-09-24T00:12:11.720Z,11.6
2022-09-24T00:15:11.656Z,11.6
2022-09-24T00:18:11.679Z,11.6
2022-09-24T00:21:11.707Z,11.6
2022-09-24T00:24:12.022Z,11.6
2022-09-24T00:27:11.854Z,11.6
2022-09-24T00:30:11.700Z,11.6
2022-09-24T00:33:11.693Z,11.5
2022-09-24T00:36:11.673Z,11.5
2022-09-24T00:39:11.652Z,11.4
2022-09-24T00:42:11.703Z,11.4
2022-09-24T00:45:11.730Z,11.4
2022-09-24T00:48:11.669Z,11.4
2022-09-24T00:51:11.645Z,11.3
2022-09-24T00:54:12.231Z,11.3
2022-09-24T00:57:11.674Z,11.3
2022-09-24T01:00:11.739Z,11.3
2022-09-24T01:03:11.685Z,11.1
2022-09-24T01:06:11.680Z,11.1
2022-09-24T01:09:11.676Z,11
2022-09-24T01:12:11.710Z,11
2022-09-24T01:15:11.679Z,10.9
2022-09-24T01:18:11.698Z,10.8
2022-09-24T01:21:11.681Z,10.8
2022-09-24T01:24:11.852Z,10.8
2022-09-24T01:27:11.700Z,10.8
2022-09-24T01:30:11.736Z,10.9
2022-09-24T01:33:11.677Z,11
2022-09-24T01:36:11.635Z,11
2022-09-24T01:39:11.682Z,11
2022-09-24T01:42:11.743Z,11
2022-09-24T01:45:11.698Z,11
2022-09-24T01:48:11.670Z,11
2022-09-24T01:51:11.673Z,11
2022-09-24T01:54:12.366Z,10.9
2022-09-24T01:57:11.713Z,10.9
2022-09-24T02:00:11.671Z,10.9
2022-09-24T02:03:11.666Z,11
2022-09-24T02:06:11.720Z,10.9
2022-09-24T02:09:11.681Z,11
2022-09-24T02:12:11.645Z,11
2022-09-24T02:15:11.816Z,11
2022-09-24T02:18:11.923Z,10.9
2022-09-24T02:21:11.684Z,11
2022-09-24T02:24:12.056Z,10.9
2022-09-24T02:27:11.652Z,10.9
2022-09-24T02:30:11.700Z,10.9
2022-09-24T02:33:11.653Z,10.9
2022-09-24T02:36:11.670Z,10.9
2022-09-24T02:39:11.701Z,10.9
2022-09-24T02:42:11.680Z,10.9
2022-09-24T02:45:11.664Z,10.9
2022-09-24T02:48:11.780Z,10.9
2022-09-24T02:51:11.702Z,11
2022-09-24T02:54:12.020Z,10.9
2022-09-24T02:57:11.628Z,11
2022-09-24T03:00:11.788Z,10.9
2022-09-24T03:03:12.426Z,10.9
2022-09-24T03:06:11.698Z,10.9
2022-09-24T03:09:11.721Z,10.9
2022-09-24T03:12:11.815Z,10.9
2022-09-24T03:15:11.693Z,10.9
2022-09-24T03:18:11.687Z,10.9
2022-09-24T03:21:11.655Z,10.9
2022-09-24T03:24:11.892Z,10.9
2022-09-24T03:27:11.659Z,10.9
2022-09-24T03:30:11.703Z,10.9
2022-09-24T03:33:11.733Z,10.9
2022-09-24T03:36:11.659Z,10.9
2022-09-24T03:39:11.726Z,10.9
2022-09-24T03:42:11.824Z,11
2022-09-24T03:45:11.765Z,10.9
2022-09-24T03:48:11.647Z,10.9
2022-09-24T03:51:11.722Z,10.9
2022-09-24T03:54:11.895Z,10.9
2022-09-24T03:57:11.667Z,10.9
2022-09-24T04:00:11.737Z,10.9
2022-09-24T04:03:12.287Z,10.9
2022-09-24T04:06:11.643Z,10.9
2022-09-24T04:09:11.716Z,10.9
2022-09-24T04:12:11.669Z,10.9
2022-09-24T04:15:11.687Z,10.9
2022-09-24T04:18:11.754Z,10.9
2022-09-24T04:21:11.719Z,10.9
2022-09-24T04:24:12.025Z,10.9
2022-09-24T04:27:11.676Z,10.9
2022-09-24T04:30:11.676Z,10.9
2022-09-24T04:33:11.745Z,10.9
2022-09-24T04:36:11.707Z,10.9
2022-09-24T04:39:11.744Z,10.9
2022-09-24T04:42:11.711Z,10.8
2022-09-24T04:45:11.624Z,10.8
2022-09-24T04:48:11.679Z,10.8
2022-09-24T04:51:11.699Z,10.8
2022-09-24T04:54:11.682Z,10.6
2022-09-24T04:57:11.669Z,10.6
2022-09-24T05:00:11.682Z,10.5
2022-09-24T05:03:12.451Z,10.5
2022-09-24T05:06:11.699Z,10.5
2022-09-24T05:09:17.762Z,10.5
2022-09-24T05:12:11.729Z,10.4
2022-09-24T05:15:11.732Z,10.4
2022-09-24T05:18:11.794Z,10.4
2022-09-24T05:21:11.924Z,10.4
2022-09-24T05:24:11.760Z,10.4
2022-09-24T05:27:11.797Z,10.5
2022-09-24T05:30:11.952Z,10.5
2022-09-24T05:33:11.797Z,10.5
2022-09-24T05:36:11.671Z,10.6
2022-09-24T05:39:12.151Z,10.6
2022-09-24T05:42:11.868Z,10.8
2022-09-24T05:45:11.767Z,10.8
2022-09-24T05:48:11.698Z,10.9
2022-09-24T05:51:11.701Z,11
2022-09-24T05:54:11.849Z,11.1
2022-09-24T05:57:11.777Z,11.1
2022-09-24T06:00:11.818Z,11.3
2022-09-24T06:03:12.139Z,11.4
2022-09-24T06:06:11.733Z,11.4
2022-09-24T06:09:12.586Z,11.5
2022-09-24T06:12:11.731Z,11.6
2022-09-24T06:15:11.798Z,11.8
2022-09-24T06:18:11.822Z,11.9
2022-09-24T06:21:11.775Z,12.1
2022-09-24T06:24:11.810Z,12.2
2022-09-24T06:27:11.715Z,12.5
2022-09-24T06:30:11.761Z,12.8
2022-09-24T06:33:11.593Z,13
2022-09-24T06:36:11.681Z,13.3
2022-09-24T06:39:12.125Z,13.6
2022-09-24T06:42:11.589Z,13.9
2022-09-24T06:45:11.703Z,14.1
2022-09-24T06:48:11.651Z,14.5
2022-09-24T06:51:11.601Z,14.7
2022-09-24T06:54:11.615Z,15.1
2022-09-24T06:57:11.578Z,15.5
2022-09-24T07:00:11.726Z,15.9
2022-09-24T07:03:11.635Z,16.3
2022-09-24T07:06:11.612Z,16.6
2022-09-24T07:09:11.921Z,16.9
2022-09-24T07:12:11.642Z,17
2022-09-24T07:15:11.651Z,17.1
2022-09-24T07:18:11.662Z,17.2
2022-09-24T07:21:11.648Z,17.5
2022-09-24T07:24:11.663Z,17.9
2022-09-24T07:27:11.631Z,18.4
2022-09-24T07:30:11.674Z,18.6
2022-09-24T07:33:11.662Z,19
2022-09-24T07:36:11.659Z,19.8
2022-09-24T07:39:11.691Z,21
2022-09-24T07:42:11.621Z,22.2
2022-09-24T07:45:11.734Z,23.7
2022-09-24T07:48:11.648Z,25.6
2022-09-24T07:51:11.658Z,28.4
2022-09-24T07:54:17.309Z,29.1
2022-09-24T07:57:11.605Z,29
2022-09-24T08:00:11.738Z,27.9
2022-09-24T08:03:11.633Z,27
2022-09-24T08:06:11.603Z,26.8
2022-09-24T08:09:11.611Z,26.5
2022-09-24T08:12:11.600Z,26.1
2022-09-24T08:15:11.703Z,25.8
2022-09-24T08:18:11.671Z,25.6
2022-09-24T08:21:11.705Z,25.6
2022-09-24T08:24:11.874Z,25.5
2022-09-24T08:27:18.611Z,25.6
2022-09-24T08:30:11.868Z,26.2
2022-09-24T08:33:11.642Z,26.8
2022-09-24T08:36:11.647Z,27.4
2022-09-24T08:39:11.677Z,27.8
2022-09-24T08:42:11.647Z,28
2022-09-24T08:45:11.643Z,28.3
2022-09-24T08:48:11.675Z,28.7
2022-09-24T08:51:11.663Z,28.7
2022-09-24T08:54:12.115Z,28.7
2022-09-24T08:57:11.787Z,28.7
2022-09-24T09:00:11.714Z,28.7
2022-09-24T09:03:12.292Z,29
2022-09-24T09:06:11.662Z,29.1
2022-09-24T09:09:19.683Z,30.1
2022-09-24T09:12:11.683Z,30.5
2022-09-24T09:15:11.644Z,31.4
2022-09-24T09:18:11.745Z,32.9
2022-09-24T09:21:11.619Z,33.6
2022-09-24T09:24:11.650Z,34.4
2022-09-24T09:27:11.846Z,34.5
2022-09-24T09:30:18.517Z,34.2
2022-09-24T09:33:11.651Z,33.6
2022-09-24T09:36:11.670Z,33.1
2022-09-24T09:39:12.096Z,32.6
2022-09-24T09:42:11.669Z,32.7
2022-09-24T09:45:11.796Z,32.7
2022-09-24T09:48:11.672Z,32.2
2022-09-24T09:51:11.652Z,31.6
2022-09-24T09:54:12.101Z,31
2022-09-24T09:57:11.616Z,30.5
2022-09-24T10:00:11.647Z,30
2022-09-24T10:03:12.646Z,29.8
2022-09-24T10:06:11.654Z,29.4
2022-09-24T10:09:11.672Z,29.1
2022-09-24T10:12:11.608Z,29
2022-09-24T10:15:11.685Z,29.1
2022-09-24T10:18:11.693Z,29
2022-09-24T10:21:11.644Z,29
2022-09-24T10:24:12.102Z,28.9
2022-09-24T10:27:11.670Z,28.7
2022-09-24T10:30:11.736Z,28.4
2022-09-24T10:33:11.723Z,28
2022-09-24T10:36:11.707Z,27.9
2022-09-24T10:39:11.620Z,28.1
2022-09-24T10:42:11.691Z,28.5
2022-09-24T10:45:11.726Z,29
2022-09-24T10:48:11.682Z,29.3
2022-09-24T10:51:11.623Z,29.3
2022-09-24T10:54:12.116Z,29
2022-09-24T10:57:11.674Z,28.7
2022-09-24T11:00:11.809Z,28.6
2022-09-24T11:03:12.090Z,28.6
2022-09-24T11:06:11.648Z,28.7
2022-09-24T11:09:11.695Z,29.1
2022-09-24T11:12:11.678Z,29.5
2022-09-24T11:15:11.642Z,29.9
2022-09-24T11:18:11.675Z,30
2022-09-24T11:21:11.613Z,30.1
2022-09-24T11:24:12.056Z,30
2022-09-24T11:27:11.645Z,29.9
2022-09-24T11:30:11.794Z,30
2022-09-24T11:33:11.632Z,30.5
2022-09-24T11:36:11.688Z,30.9
2022-09-24T11:39:11.640Z,30.9
2022-09-24T11:42:11.669Z,30.5
2022-09-24T11:45:11.699Z,30
2022-09-24T11:48:11.620Z,29.4
2022-09-24T11:51:11.619Z,28.7
2022-09-24T11:54:12.069Z,28.4
2022-09-24T11:57:11.648Z,27.9
2022-09-24T12:00:11.945Z,27.5
2022-09-24T12:03:12.450Z,27.1
2022-09-24T12:06:11.699Z,26.9
2022-09-24T12:09:11.687Z,26.6
2022-09-24T12:12:11.610Z,26.4
2022-09-24T12:15:11.765Z,26.4
2022-09-24T12:18:11.680Z,26.1
2022-09-24T12:21:11.616Z,26
2022-09-24T12:24:14.982Z,25.9
2022-09-24T12:27:11.674Z,25.9
2022-09-24T12:30:11.815Z,25.6
2022-09-24T12:33:11.700Z,25.5
2022-09-24T12:36:11.681Z,25.4
2022-09-24T12:39:11.629Z,25.3
2022-09-24T12:42:11.635Z,25.1
2022-09-24T12:45:11.664Z,25.1
2022-09-24T12:48:11.684Z,25
2022-09-24T12:51:11.617Z,25
2022-09-24T12:54:11.975Z,25
2022-09-24T12:57:11.692Z,25.1
2022-09-24T13:00:11.778Z,25.3
2022-09-24T13:03:12.748Z,25.4
2022-09-24T13:06:11.645Z,25.5
2022-09-24T13:09:11.702Z,25.6
2022-09-24T13:12:11.646Z,25.6
2022-09-24T13:15:11.748Z,25.6
2022-09-24T13:18:11.677Z,25.6
2022-09-24T13:21:11.642Z,25.8
2022-09-24T13:24:11.971Z,26.1
2022-09-24T13:27:11.609Z,26.8
2022-09-24T13:30:11.702Z,27.5
2022-09-24T13:33:11.665Z,28.3
2022-09-24T13:36:11.632Z,28.9
2022-09-24T13:39:12.223Z,29.1
2022-09-24T13:42:11.670Z,30.5
2022-09-24T13:45:16.633Z,31.6
2022-09-24T13:48:11.693Z,31.1
2022-09-24T13:51:11.641Z,30.6
2022-09-24T13:54:11.657Z,30.4
2022-09-24T13:57:11.661Z,30.3
2022-09-24T14:00:11.951Z,29.9
2022-09-24T14:03:12.392Z,29.4
2022-09-24T14:06:11.643Z,28.7
2022-09-24T14:09:11.931Z,27.9
2022-09-24T14:12:11.707Z,26.9
2022-09-24T14:15:11.693Z,26.2
2022-09-24T14:18:17.479Z,25.5
2022-09-24T14:21:11.662Z,24.9
2022-09-24T14:24:11.671Z,24.4
2022-09-24T14:27:11.668Z,24.1
2022-09-24T14:30:11.669Z,23.7
2022-09-24T14:33:11.663Z,23.4
2022-09-24T14:36:11.651Z,23.1
2022-09-24T14:39:12.040Z,22.8
2022-09-24T14:42:11.695Z,22.4
2022-09-24T14:45:11.639Z,22.1
2022-09-24T14:48:11.659Z,21.9
2022-09-24T14:51:11.653Z,21.6
2022-09-24T14:54:11.613Z,21.5
2022-09-24T14:57:11.592Z,21.2
2022-09-24T15:00:11.805Z,21
2022-09-24T15:03:11.810Z,20.8
2022-09-24T15:06:11.819Z,20.3
2022-09-24T15:09:12.062Z,19.9
2022-09-24T15:12:11.630Z,19.5
2022-09-24T15:15:11.687Z,19.3
2022-09-24T15:18:11.704Z,18.8
2022-09-24T15:21:11.619Z,18.5
2022-09-24T15:24:11.661Z,18.1
2022-09-24T15:27:11.633Z,17.8
2022-09-24T15:30:12.104Z,17.6
2022-09-24T15:33:11.600Z,17.5
2022-09-24T15:36:11.684Z,17.5
2022-09-24T15:39:11.968Z,17.4
2022-09-24T15:42:11.673Z,17.2
2022-09-24T15:45:11.705Z,17.2
2022-09-24T15:48:11.651Z,17.2
2022-09-24T15:51:22.515Z,17.1
2022-09-24T15:54:11.671Z,17
2022-09-24T15:57:11.701Z,16.8
2022-09-24T16:00:11.768Z,16.5
2022-09-24T16:03:12.198Z,16.4
2022-09-24T16:06:11.675Z,16.1
2022-09-24T16:09:12.162Z,15.9
2022-09-24T16:12:11.690Z,15.8
2022-09-24T16:15:11.670Z,15.6
2022-09-24T16:18:11.676Z,15.4
2022-09-24T16:21:11.617Z,15.4
2022-09-24T16:24:11.686Z,15.3
2022-09-24T16:27:11.566Z,15.1
2022-09-24T16:30:11.750Z,15
2022-09-24T16:33:11.606Z,14.9
2022-09-24T16:36:11.645Z,14.9
2022-09-24T16:39:11.964Z,14.9
2022-09-24T16:42:11.635Z,14.7
2022-09-24T16:45:11.656Z,14.7
2022-09-24T16:48:11.638Z,14.6
2022-09-24T16:51:11.850Z,14.6
2022-09-24T16:54:11.683Z,14.5
2022-09-24T16:57:11.604Z,14.5
2022-09-24T17:00:11.652Z,14.4
2022-09-24T17:03:12.289Z,14.4
2022-09-24T17:06:11.589Z,14.3
2022-09-24T17:09:12.030Z,14.1
2022-09-24T17:12:11.646Z,14.1
2022-09-24T17:15:11.585Z,13.9
2022-09-24T17:18:11.641Z,13.9
2022-09-24T17:21:11.525Z,13.8
2022-09-24T17:24:11.636Z,13.6
2022-09-24T17:27:11.562Z,13.5
2022-09-24T17:30:11.655Z,13.5
2022-09-24T17:33:49.377Z,13.5
2022-09-24T17:36:11.631Z,13.4
2022-09-24T17:39:11.858Z,13.4
2022-09-24T17:42:11.630Z,13.3
2022-09-24T17:45:11.595Z,13.1
2022-09-24T17:48:11.620Z,13.1
2022-09-24T17:51:11.550Z,13.1
2022-09-24T17:54:11.665Z,13
2022-09-24T17:57:11.566Z,13
2022-09-24T18:00:11.603Z,13
2022-09-24T18:03:12.192Z,12.9
2022-09-24T18:06:11.618Z,12.9
2022-09-24T18:09:11.944Z,12.9
2022-09-24T18:12:17.266Z,12.9
2022-09-24T18:15:11.587Z,12.8
2022-09-24T18:18:11.669Z,12.8
2022-09-24T18:21:11.756Z,12.8
2022-09-24T18:24:11.730Z,12.8
2022-09-24T18:27:11.718Z,12.8
2022-09-24T18:30:11.749Z,12.8
2022-09-24T18:33:11.734Z,12.8
2022-09-24T18:36:11.713Z,12.6
2022-09-24T18:39:11.872Z,12.6
2022-09-24T18:42:11.745Z,12.6
2022-09-24T18:45:11.783Z,12.6
2022-09-24T18:48:11.709Z,12.5
2022-09-24T18:51:11.658Z,12.5
2022-09-24T18:54:11.777Z,12.5
2022-09-24T18:57:11.665Z,12.5
2022-09-24T19:00:11.721Z,12.4
2022-09-24T19:03:12.673Z,12.4
2022-09-24T19:06:11.744Z,12.4
2022-09-24T19:09:12.238Z,12.4
2022-09-24T19:12:11.727Z,12.4
2022-09-24T19:15:11.793Z,12.2
2022-09-24T19:18:11.669Z,12.4
2022-09-24T19:21:11.656Z,12.4
2022-09-24T19:24:11.714Z,12.4
2022-09-24T19:27:11.701Z,12.4
2022-09-24T19:30:11.700Z,12.4
2022-09-24T19:33:11.660Z,12.4
2022-09-24T19:36:11.658Z,12.4
2022-09-24T19:39:11.972Z,12.5
2022-09-24T19:42:11.719Z,12.4
2022-09-24T19:45:11.727Z,12.5
2022-09-24T19:48:11.661Z,12.5
2022-09-24T19:51:11.676Z,12.4
2022-09-24T19:54:12.776Z,12.4
2022-09-24T19:57:11.678Z,12.5
2022-09-24T20:00:12.491Z,12.4
2022-09-24T20:03:12.218Z,12.4
2022-09-24T20:06:11.709Z,12.4
2022-09-24T20:09:11.686Z,12.4
2022-09-24T20:12:11.654Z,12.2
2022-09-24T20:15:11.894Z,12.2
2022-09-24T20:18:11.794Z,12.1
2022-09-24T20:21:11.727Z,12.1
2022-09-24T20:24:11.974Z,12.1
2022-09-24T20:27:11.705Z,12
2022-09-24T20:30:11.743Z,12
2022-09-24T20:33:11.664Z,12
2022-09-24T20:36:27.339Z,12
2022-09-24T20:39:11.712Z,12
2022-09-24T20:42:11.720Z,11.9
2022-09-24T20:45:17.540Z,11.9
2022-09-24T20:48:11.726Z,11.9
2022-09-24T20:51:11.670Z,11.8
2022-09-24T20:54:11.917Z,11.8
2022-09-24T20:57:11.656Z,11.6
2022-09-24T21:00:12.119Z,11.6
2022-09-24T21:03:51.279Z,11.5
2022-09-24T21:06:11.668Z,11.5
2022-09-24T21:09:11.679Z,11.4
2022-09-24T21:12:11.667Z,11.4
2022-09-24T21:15:11.695Z,11.3
2022-09-24T21:18:46.478Z,11.3
2022-09-24T21:21:11.698Z,11.1
2022-09-24T21:24:12.139Z,11.1
2022-09-24T21:27:11.728Z,11
2022-09-24T21:30:11.742Z,11
2022-09-24T21:33:11.669Z,10.9
2022-09-24T21:36:11.687Z,10.9
2022-09-24T21:39:11.713Z,10.9
2022-09-24T21:42:11.745Z,10.8
2022-09-24T21:45:11.768Z,10.8
2022-09-24T21:48:11.712Z,10.8
2022-09-24T21:51:11.678Z,10.8
2022-09-24T21:54:12.018Z,10.6
2022-09-24T21:57:11.674Z,10.6
2022-09-24T22:00:11.790Z,10.6
2022-09-24T22:03:12.040Z,10.6
2022-09-24T22:06:11.747Z,10.5
2022-09-24T22:09:11.737Z,10.5
2022-09-24T22:12:11.758Z,10.5
2022-09-24T22:15:11.660Z,10.4
2022-09-24T22:18:11.695Z,10.4
2022-09-24T22:21:11.626Z,10.4
2022-09-24T22:24:12.066Z,10.4
2022-09-24T22:27:11.687Z,10.5
2022-09-24T22:30:11.685Z,10.5
2022-09-24T22:33:11.689Z,10.6
2022-09-24T22:36:11.668Z,10.6
2022-09-24T22:39:11.709Z,10.8
2022-09-24T22:42:11.751Z,10.8
2022-09-24T22:45:11.696Z,10.8
2022-09-24T22:48:11.662Z,10.9
2022-09-24T22:51:11.727Z,10.9
2022-09-24T22:54:12.176Z,10.9
2022-09-24T22:57:11.655Z,10.9
2022-09-24T23:00:11.724Z,11
2022-09-24T23:03:11.671Z,11
2022-09-24T23:06:11.726Z,11
2022-09-24T23:09:11.695Z,11
2022-09-24T23:12:11.707Z,11
2022-09-24T23:15:11.722Z,11
2022-09-24T23:18:11.687Z,11.1
2022-09-24T23:21:11.678Z,11
2022-09-24T23:24:12.091Z,11.1
2022-09-24T23:27:11.641Z,11.1
2022-09-24T23:30:11.684Z,11.1
2022-09-24T23:33:11.722Z,11.1
2022-09-24T23:36:11.713Z,11
2022-09-24T23:39:11.766Z,11
2022-09-24T23:42:11.662Z,11
2022-09-24T23:45:11.668Z,10.9
2022-09-24T23:48:11.720Z,10.9
2022-09-24T23:51:11.662Z,11
2022-09-24T23:54:11.833Z,11
2022-09-24T23:57:11.714Z,11
